Time;durP1;ratioP1;P1;durP2;ratioP2;P2;SDS_P1;SDS_P2;PMS_P1;PMS_P2;Temp;Humidity;BMP_temperature;BMP_pressure;BME280_temperature;BME280_humidity;BME280_pressure;Samples;Min_cycle;Max_cycle;Signal;HPM_P1;HPM_P2
2021/08/01 00:00:47;;;;;;;6.30;5.80;;;;;;;;;;4987684;28;25015;-51
2021/08/01 00:03:12;;;;;;;6.00;5.40;;;;;;;;;;4988188;28;24459;-50
2021/08/01 00:05:37;;;;;;;6.10;5.60;;;;;;;;;;4988414;28;24815;-51
2021/08/01 00:08:02;;;;;;;5.90;5.30;;;;;;;;;;4988087;28;24415;-50
2021/08/01 00:10:29;;;;;;;4.87;4.57;;;;;;;;;;4988078;28;24455;-51
2021/08/01 00:12:54;;;;;;;5.75;5.35;;;;;;;;;;4988208;28;24543;-50
2021/08/01 00:15:20;;;;;;;6.00;5.40;;;;;;;;;;4987875;28;25079;-50
2021/08/01 00:17:45;;;;;;;5.50;5.00;;;;;;;;;;4986960;28;24432;-50
2021/08/01 00:20:10;;;;;;;5.28;4.88;;;;;;;;;;4988013;28;25016;-50
2021/08/01 00:22:35;;;;;;;5.20;4.80;;;;;;;;;;4988300;28;24993;-50
2021/08/01 00:25:00;;;;;;;5.80;5.40;;;;;;;;;;4988259;28;24467;-51
2021/08/01 00:27:26;;;;;;;5.35;4.85;;;;;;;;;;4987359;28;24413;-51
2021/08/01 00:29:51;;;;;;;5.03;4.53;;;;;;;;;;4987797;28;24903;-51
2021/08/01 00:32:16;;;;;;;5.28;4.95;;;;;;;;;;4988045;28;24950;-51
2021/08/01 00:34:41;;;;;;;6.00;5.50;;;;;;;;;;4987949;28;24567;-52
2021/08/01 00:37:06;;;;;;;5.47;5.00;;;;;;;;;;4987920;28;24409;-51
2021/08/01 00:39:32;;;;;;;5.32;4.90;;;;;;;;;;4987351;28;24600;-51
2021/08/01 00:41:57;;;;;;;5.50;5.10;;;;;;;;;;4988057;28;24413;-51
2021/08/01 00:44:22;;;;;;;5.70;5.20;;;;;;;;;;4987526;28;24493;-51
2021/08/01 00:46:47;;;;;;;4.70;4.40;;;;;;;;;;4987453;28;25036;-51
2021/08/01 00:49:12;;;;;;;4.53;4.23;;;;;;;;;;4987299;28;24416;-51
2021/08/01 00:51:38;;;;;;;4.40;4.00;;;;;;;;;;4987585;28;24424;-50
2021/08/01 00:54:03;;;;;;;5.20;4.80;;;;;;;;;;4987693;28;24558;-50
2021/08/01 00:56:32;;;;;;;5.07;4.57;;;;;;;;;;4987674;28;24535;-49
2021/08/01 00:58:57;;;;;;;4.60;4.20;;;;;;;;;;4986973;28;24418;-50
2021/08/01 01:01:42;;;;;;;4.50;4.20;;;;;;;;;;4986916;28;24537;-50
2021/08/01 01:04:16;;;;;;;5.07;4.78;;;;;;;;;;4974029;28;24432;-51
2021/08/01 01:06:46;;;;;;;5.30;4.90;;;;;;;;;;4987574;28;24417;-50
2021/08/01 01:09:20;;;;;;;5.40;5.00;;;;;;;;;;4987505;28;24427;-50
2021/08/01 01:11:47;;;;;;;5.20;4.80;;;;;;;;;;4987040;28;24504;-51
2021/08/01 01:14:16;;;;;;;6.20;5.60;;;;;;;;;;4989479;28;24579;-50
2021/08/01 01:16:44;;;;;;;5.68;5.18;;;;;;;;;;4991176;28;24413;-50
2021/08/01 01:19:12;;;;;;;5.90;5.50;;;;;;;;;;4991080;28;24411;-50
2021/08/01 01:21:47;;;;;;;6.03;5.53;;;;;;;;;;4990823;28;24504;-50
2021/08/01 01:24:18;;;;;;;5.90;5.40;;;;;;;;;;4990570;28;24424;-51
2021/08/01 01:26:52;;;;;;;6.47;5.97;;;;;;;;;;4991223;28;24576;-50
2021/08/01 01:29:26;;;;;;;6.65;6.15;;;;;;;;;;4990536;28;24955;-51
2021/08/01 01:32:00;;;;;;;6.47;5.95;;;;;;;;;;4990847;28;24425;-51
2021/08/01 01:34:29;;;;;;;6.45;5.95;;;;;;;;;;4990366;28;24463;-51
2021/08/01 01:36:54;;;;;;;6.00;5.60;;;;;;;;;;4990003;28;24422;-49
2021/08/01 01:39:20;;;;;;;5.80;5.40;;;;;;;;;;4990426;28;24978;-50
2021/08/01 01:41:46;;;;;;;5.32;4.93;;;;;;;;;;4990901;28;25013;-50
2021/08/01 01:44:12;;;;;;;5.32;4.93;;;;;;;;;;4990403;28;24413;-51
2021/08/01 01:46:37;;;;;;;4.90;4.50;;;;;;;;;;4990659;28;24763;-51
2021/08/01 01:49:04;;;;;;;5.47;5.07;;;;;;;;;;4989793;28;24524;-51
2021/08/01 01:51:29;;;;;;;5.25;4.95;;;;;;;;;;4990628;28;24947;-51
2021/08/01 01:53:54;;;;;;;4.60;4.30;;;;;;;;;;4989951;28;24529;-51
2021/08/01 01:56:20;;;;;;;5.30;4.80;;;;;;;;;;4990710;28;24898;-52
2021/08/01 01:58:45;;;;;;;5.63;5.13;;;;;;;;;;4989893;28;24420;-52
2021/08/01 02:01:11;;;;;;;5.38;4.97;;;;;;;;;;4990264;28;25222;-53
2021/08/01 02:03:36;;;;;;;5.70;5.20;;;;;;;;;;4990688;28;24412;-52
2021/08/01 02:06:01;;;;;;;5.47;5.07;;;;;;;;;;4990762;28;24413;-51
2021/08/01 02:08:35;;;;;;;4.93;4.60;;;;;;;;;;4989742;28;24417;-51
2021/08/01 02:11:00;;;;;;;5.60;5.10;;;;;;;;;;4990313;28;24456;-51
2021/08/01 02:13:29;;;;;;;5.70;5.20;;;;;;;;;;4990169;28;24795;-52
2021/08/01 02:15:59;;;;;;;5.00;4.60;;;;;;;;;;4990241;28;24496;-51
2021/08/01 02:18:24;;;;;;;4.90;4.60;;;;;;;;;;4990145;28;24414;-50
2021/08/01 02:20:51;;;;;;;5.00;4.70;;;;;;;;;;4988158;28;24420;-51
2021/08/01 02:23:18;;;;;;;4.78;4.47;;;;;;;;;;4990112;28;24429;-52
2021/08/01 02:25:45;;;;;;;5.00;4.60;;;;;;;;;;4988557;28;25072;-51
2021/08/01 02:28:10;;;;;;;4.65;4.35;;;;;;;;;;4989623;28;24625;-52
2021/08/01 02:30:36;;;;;;;5.70;5.20;;;;;;;;;;4989627;28;24500;-51
2021/08/01 02:33:02;;;;;;;4.87;4.57;;;;;;;;;;4988141;28;25075;-51
2021/08/01 02:35:28;;;;;;;5.30;4.90;;;;;;;;;;4988956;28;24420;-51
2021/08/01 02:37:55;;;;;;;4.32;4.03;;;;;;;;;;4989348;28;24405;-51
2021/08/01 02:40:20;;;;;;;5.43;4.93;;;;;;;;;;4989259;28;24464;-51
2021/08/01 02:42:47;;;;;;;5.03;4.72;;;;;;;;;;4988957;28;24967;-51
2021/08/01 02:45:12;;;;;;;5.30;4.90;;;;;;;;;;4989377;28;24413;-52
2021/08/01 02:47:38;;;;;;;5.00;4.70;;;;;;;;;;4990110;28;24474;-51
2021/08/01 02:50:04;;;;;;;5.07;4.68;;;;;;;;;;4989512;28;24424;-51
2021/08/01 02:52:38;;;;;;;4.70;4.40;;;;;;;;;;4989471;28;25003;-52
2021/08/01 02:55:03;;;;;;;4.80;4.50;;;;;;;;;;4989203;28;24412;-51
2021/08/01 02:57:30;;;;;;;5.10;4.70;;;;;;;;;;4989308;28;24468;-50
2021/08/01 02:59:56;;;;;;;4.95;4.60;;;;;;;;;;4989418;28;24420;-50
2021/08/01 03:02:22;;;;;;;5.10;4.70;;;;;;;;;;4989228;28;24417;-51
2021/08/01 03:04:48;;;;;;;4.60;4.30;;;;;;;;;;4988896;28;24417;-55
2021/08/01 03:07:14;;;;;;;5.20;4.90;;;;;;;;;;4989309;28;24409;-51
2021/08/01 03:09:39;;;;;;;4.22;3.92;;;;;;;;;;4988730;28;24513;-52
2021/08/01 03:12:11;;;;;;;4.80;4.40;;;;;;;;;;4988556;28;24440;-52
2021/08/01 03:14:36;;;;;;;4.90;4.50;;;;;;;;;;4988614;28;25094;-52
2021/08/01 03:17:02;;;;;;;5.25;4.75;;;;;;;;;;4989078;28;24508;-52
2021/08/01 03:19:27;;;;;;;5.05;4.55;;;;;;;;;;4988794;28;24528;-52
2021/08/01 03:21:52;;;;;;;4.70;4.40;;;;;;;;;;4989391;28;24402;-52
2021/08/01 03:24:17;;;;;;;5.28;4.88;;;;;;;;;;4988920;28;24963;-51
2021/08/01 03:26:42;;;;;;;4.50;4.10;;;;;;;;;;4988569;28;24420;-52
2021/08/01 03:29:07;;;;;;;4.60;4.20;;;;;;;;;;4988532;28;24823;-52
2021/08/01 03:31:32;;;;;;;4.70;4.40;;;;;;;;;;4988755;28;25005;-51
2021/08/01 03:33:58;;;;;;;4.38;4.07;;;;;;;;;;4988895;28;24433;-52
2021/08/01 03:36:23;;;;;;;5.20;4.90;;;;;;;;;;4987240;28;24409;-52
2021/08/01 03:38:48;;;;;;;5.20;4.80;;;;;;;;;;4988947;28;24497;-52
2021/08/01 03:41:13;;;;;;;5.82;5.40;;;;;;;;;;4988478;28;24501;-51
2021/08/01 03:43:38;;;;;;;6.18;5.60;;;;;;;;;;4988748;28;24424;-52
2021/08/01 03:46:03;;;;;;;5.18;4.88;;;;;;;;;;4988969;28;24420;-52
2021/08/01 03:48:29;;;;;;;5.10;4.70;;;;;;;;;;4986535;28;24416;-51
2021/08/01 03:50:54;;;;;;;5.40;5.00;;;;;;;;;;4988738;28;24417;-51
2021/08/01 03:53:19;;;;;;;5.03;4.63;;;;;;;;;;4988381;28;24503;-51
2021/08/01 03:55:44;;;;;;;5.70;5.30;;;;;;;;;;4988676;28;24425;-52
2021/08/01 03:58:09;;;;;;;5.00;4.70;;;;;;;;;;4987862;28;24420;-51
2021/08/01 04:00:34;;;;;;;5.15;4.70;;;;;;;;;;4988221;28;24987;-52
2021/08/01 04:03:00;;;;;;;5.30;4.90;;;;;;;;;;4988535;28;24977;-51
2021/08/01 04:05:25;;;;;;;5.47;4.97;;;;;;;;;;4988230;28;24409;-51
2021/08/01 04:07:50;;;;;;;4.40;4.10;;;;;;;;;;4988278;28;24476;-52
2021/08/01 04:10:15;;;;;;;5.18;4.78;;;;;;;;;;4988260;28;24412;-51
2021/08/01 04:12:40;;;;;;;4.13;3.83;;;;;;;;;;4987816;28;24433;-51
2021/08/01 04:15:06;;;;;;;5.00;4.70;;;;;;;;;;4988406;28;24644;-52
2021/08/01 04:17:31;;;;;;;4.67;4.27;;;;;;;;;;4988197;28;24405;-51
2021/08/01 04:19:57;;;;;;;4.30;4.10;;;;;;;;;;4987801;28;24435;-51
2021/08/01 04:22:22;;;;;;;5.70;5.20;;;;;;;;;;4987897;28;24412;-51
2021/08/01 04:24:47;;;;;;;4.70;4.30;;;;;;;;;;4988280;28;24500;-52
2021/08/01 04:27:12;;;;;;;4.22;3.92;;;;;;;;;;4987915;28;24417;-52
2021/08/01 04:29:37;;;;;;;5.20;4.90;;;;;;;;;;4987439;28;24420;-51
2021/08/01 04:32:03;;;;;;;4.22;3.92;;;;;;;;;;4988057;28;24405;-52
2021/08/01 04:34:28;;;;;;;3.92;3.70;;;;;;;;;;4983365;28;24436;-51
2021/08/01 04:36:53;;;;;;;4.40;4.10;;;;;;;;;;4987978;28;24509;-52
2021/08/01 04:39:19;;;;;;;3.80;3.60;;;;;;;;;;4987203;28;24405;-53
2021/08/01 04:41:44;;;;;;;5.20;4.50;;;;;;;;;;4987828;28;24415;-51
2021/08/01 04:44:09;;;;;;;4.70;4.40;;;;;;;;;;4988074;28;24986;-51
2021/08/01 04:46:35;;;;;;;4.07;3.88;;;;;;;;;;4987398;28;24509;-51
2021/08/01 04:49:00;;;;;;;4.30;4.00;;;;;;;;;;4989087;28;24483;-52
2021/08/01 04:51:25;;;;;;;4.97;4.47;;;;;;;;;;4986842;28;24460;-51
2021/08/01 04:53:50;;;;;;;4.73;4.43;;;;;;;;;;4989844;28;24451;-51
2021/08/01 04:56:15;;;;;;;4.97;4.57;;;;;;;;;;4987653;28;24572;-52
2021/08/01 04:58:40;;;;;;;4.65;4.25;;;;;;;;;;4990763;28;24416;-51
2021/08/01 05:01:12;;;;;;;4.32;4.03;;;;;;;;;;4990618;28;24467;-51
2021/08/01 05:03:37;;;;;;;4.47;4.18;;;;;;;;;;4991329;28;24428;-51
2021/08/01 05:06:02;;;;;;;5.00;4.50;;;;;;;;;;4988628;28;25029;-51
2021/08/01 05:08:28;;;;;;;4.60;4.20;;;;;;;;;;4987607;28;25191;-52
2021/08/01 05:10:53;;;;;;;4.50;4.20;;;;;;;;;;4990805;28;24508;-51
2021/08/01 05:13:18;;;;;;;4.78;4.43;;;;;;;;;;4989280;28;24440;-52
2021/08/01 05:15:44;;;;;;;4.25;3.95;;;;;;;;;;4983927;28;24815;-52
2021/08/01 05:18:09;;;;;;;5.00;4.60;;;;;;;;;;4986110;28;24468;-51
2021/08/01 05:20:39;;;;;;;4.13;3.83;;;;;;;;;;4971977;28;24928;-51
2021/08/01 05:23:04;;;;;;;4.40;4.05;;;;;;;;;;4984714;28;24421;-52
2021/08/01 05:25:29;;;;;;;4.30;4.00;;;;;;;;;;4991217;28;24471;-52
2021/08/01 05:27:55;;;;;;;4.10;3.80;;;;;;;;;;4986960;28;24413;-52
2021/08/01 05:30:20;;;;;;;3.80;3.55;;;;;;;;;;4986412;28;24776;-53
2021/08/01 05:32:45;;;;;;;4.80;4.40;;;;;;;;;;4986781;28;24437;-52
2021/08/01 05:35:10;;;;;;;3.80;3.50;;;;;;;;;;4984571;28;24424;-54
2021/08/01 05:37:35;;;;;;;3.90;3.70;;;;;;;;;;4977692;28;24772;-52
2021/08/01 05:40:00;;;;;;;4.10;3.80;;;;;;;;;;4987912;28;24761;-52
2021/08/01 05:42:25;;;;;;;4.53;4.22;;;;;;;;;;4985001;28;25059;-52
2021/08/01 05:44:51;;;;;;;3.83;3.63;;;;;;;;;;4982913;28;24413;-52
2021/08/01 05:47:16;;;;;;;3.80;3.60;;;;;;;;;;4978368;28;24428;-52
2021/08/01 05:49:41;;;;;;;4.03;3.83;;;;;;;;;;4985770;28;24973;-52
2021/08/01 05:52:06;;;;;;;4.00;3.70;;;;;;;;;;4983245;28;24493;-53
2021/08/01 05:54:31;;;;;;;3.67;3.47;;;;;;;;;;4964156;28;24456;-52
2021/08/01 05:56:57;;;;;;;3.70;3.40;;;;;;;;;;4980871;28;25145;-52
2021/08/01 05:59:22;;;;;;;4.90;4.50;;;;;;;;;;4982133;28;24445;-52
2021/08/01 06:01:47;;;;;;;4.77;4.47;;;;;;;;;;4960751;28;24504;-52
2021/08/01 06:04:13;;;;;;;4.70;4.30;;;;;;;;;;4976679;28;24416;-52
2021/08/01 06:06:39;;;;;;;4.30;4.00;;;;;;;;;;4978517;28;25320;-52
2021/08/01 06:09:04;;;;;;;4.38;4.07;;;;;;;;;;4978053;28;24425;-52
2021/08/01 06:11:29;;;;;;;4.97;4.57;;;;;;;;;;4978204;28;24861;-52
2021/08/01 06:13:54;;;;;;;4.60;4.30;;;;;;;;;;4988289;28;24572;-52
2021/08/01 06:16:19;;;;;;;4.30;3.60;;;;;;;;;;4981733;28;24413;-53
2021/08/01 06:18:45;;;;;;;4.80;4.40;;;;;;;;;;4987104;28;24419;-53
2021/08/01 06:21:19;;;;;;;5.00;4.60;;;;;;;;;;4977924;28;24976;-52
2021/08/01 06:23:46;;;;;;;4.68;4.38;;;;;;;;;;4984008;28;24413;-51
2021/08/01 06:26:11;;;;;;;4.55;4.25;;;;;;;;;;4986215;28;24410;-52
2021/08/01 06:28:37;;;;;;;4.50;4.20;;;;;;;;;;4979474;28;25021;-51
2021/08/01 06:31:03;;;;;;;5.50;5.00;;;;;;;;;;4978392;28;24440;-53
2021/08/01 06:33:28;;;;;;;5.07;4.67;;;;;;;;;;4973927;28;25130;-53
2021/08/01 06:35:53;;;;;;;4.80;4.50;;;;;;;;;;4974095;28;24484;-53
2021/08/01 06:38:19;;;;;;;4.80;4.50;;;;;;;;;;4980409;28;24414;-51
2021/08/01 06:40:44;;;;;;;4.73;4.43;;;;;;;;;;4985495;28;24424;-51
2021/08/01 06:43:09;;;;;;;4.95;4.55;;;;;;;;;;4984534;28;25009;-52
2021/08/01 06:45:34;;;;;;;5.05;4.75;;;;;;;;;;4976950;28;24428;-52
2021/08/01 06:47:59;;;;;;;4.83;4.53;;;;;;;;;;4981873;28;24791;-52
2021/08/01 06:50:25;;;;;;;5.30;4.90;;;;;;;;;;4980513;28;24429;-51
2021/08/01 06:52:50;;;;;;;4.90;4.60;;;;;;;;;;4980550;28;24487;-52
2021/08/01 06:55:15;;;;;;;5.07;4.70;;;;;;;;;;4984302;28;24836;-53
2021/08/01 06:57:40;;;;;;;5.00;4.60;;;;;;;;;;4979868;28;24412;-52
2021/08/01 07:00:06;;;;;;;5.30;5.00;;;;;;;;;;4985286;28;24416;-52
2021/08/01 07:02:31;;;;;;;6.10;5.60;;;;;;;;;;4964456;28;24440;-52
2021/08/01 07:04:59;;;;;;;5.60;5.20;;;;;;;;;;4983129;28;24452;-51
2021/08/01 07:07:25;;;;;;;5.75;5.25;;;;;;;;;;4973641;28;24445;-51
2021/08/01 07:09:50;;;;;;;4.90;4.60;;;;;;;;;;4980086;28;25062;-52
2021/08/01 07:12:16;;;;;;;5.37;5.07;;;;;;;;;;4975849;28;24417;-51
2021/08/01 07:14:42;;;;;;;6.13;5.72;;;;;;;;;;4981164;28;25244;-52
2021/08/01 07:17:07;;;;;;;5.70;5.20;;;;;;;;;;4976919;28;24466;-53
2021/08/01 07:19:32;;;;;;;4.90;4.60;;;;;;;;;;4982484;28;24532;-51
2021/08/01 07:21:57;;;;;;;5.20;4.90;;;;;;;;;;4981255;28;24417;-51
2021/08/01 07:24:22;;;;;;;4.80;4.50;;;;;;;;;;4985116;28;24468;-52
2021/08/01 07:26:47;;;;;;;5.30;4.90;;;;;;;;;;4967890;28;24420;-51
2021/08/01 07:29:16;;;;;;;5.60;5.20;;;;;;;;;;4984600;28;24409;-51
2021/08/01 07:31:41;;;;;;;5.90;5.50;;;;;;;;;;4970539;28;24417;-52
2021/08/01 07:34:06;;;;;;;7.22;6.70;;;;;;;;;;4973450;28;24463;-52
2021/08/01 07:36:32;;;;;;;7.00;6.60;;;;;;;;;;4968743;28;24409;-52
2021/08/01 07:38:57;;;;;;;7.30;6.80;;;;;;;;;;4970814;28;24417;-52
2021/08/01 07:41:22;;;;;;;7.90;7.30;;;;;;;;;;4980350;28;24413;-52
2021/08/01 07:43:47;;;;;;;7.68;7.10;;;;;;;;;;4981022;28;25369;-52
2021/08/01 07:46:13;;;;;;;7.90;7.30;;;;;;;;;;4971943;28;24428;-52
2021/08/01 07:48:38;;;;;;;7.20;6.70;;;;;;;;;;4984364;28;24475;-52
2021/08/01 07:51:03;;;;;;;6.97;6.47;;;;;;;;;;4982951;28;24856;-52
2021/08/01 07:53:28;;;;;;;6.60;6.10;;;;;;;;;;4983999;28;24487;-52
2021/08/01 07:55:53;;;;;;;7.53;6.83;;;;;;;;;;4978121;28;24419;-52
2021/08/01 07:58:19;;;;;;;7.72;7.13;;;;;;;;;;4981865;28;24417;-52
2021/08/01 08:00:44;;;;;;;7.30;6.80;;;;;;;;;;4970755;28;24422;-52
2021/08/01 08:03:09;;;;;;;8.27;7.67;;;;;;;;;;4975645;28;24426;-53
2021/08/01 08:05:34;;;;;;;7.13;6.63;;;;;;;;;;4983848;28;25030;-53
2021/08/01 08:07:59;;;;;;;7.80;7.20;;;;;;;;;;4969217;28;25005;-53
2021/08/01 08:10:24;;;;;;;7.20;6.70;;;;;;;;;;4969243;28;24421;-53
2021/08/01 08:12:50;;;;;;;7.93;7.30;;;;;;;;;;4980228;28;25058;-53
2021/08/01 08:15:16;;;;;;;8.40;7.80;;;;;;;;;;4973816;28;24408;-53
2021/08/01 08:17:41;;;;;;;7.70;7.20;;;;;;;;;;4973717;28;24512;-53
2021/08/01 08:20:07;;;;;;;7.83;7.23;;;;;;;;;;4982303;28;24511;-52
2021/08/01 08:22:32;;;;;;;8.05;7.35;;;;;;;;;;4982391;28;24417;-53
2021/08/01 08:24:57;;;;;;;8.43;7.83;;;;;;;;;;4984668;28;24459;-53
2021/08/01 08:27:22;;;;;;;8.63;7.93;;;;;;;;;;4984539;28;24413;-52
2021/08/01 08:29:48;;;;;;;8.10;7.50;;;;;;;;;;4983588;28;24416;-53
2021/08/01 08:32:13;;;;;;;7.70;7.20;;;;;;;;;;4984727;28;24424;-53
2021/08/01 08:34:38;;;;;;;8.60;8.00;;;;;;;;;;4984816;28;24436;-53
2021/08/01 08:37:03;;;;;;;8.02;7.43;;;;;;;;;;4967713;28;24781;-52
2021/08/01 08:39:28;;;;;;;8.63;8.03;;;;;;;;;;4984793;28;24513;-52
2021/08/01 08:41:55;;;;;;;7.90;7.40;;;;;;;;;;4984578;28;24389;-52
2021/08/01 08:44:21;;;;;;;8.30;7.70;;;;;;;;;;4984243;28;24470;-52
2021/08/01 08:46:46;;;;;;;10.15;9.35;;;;;;;;;;4984804;28;24412;-52
2021/08/01 08:49:12;;;;;;;10.05;9.18;;;;;;;;;;4983607;28;25014;-52
2021/08/01 08:51:39;;;;;;;7.90;7.20;;;;;;;;;;4978877;28;24964;-52
2021/08/01 08:54:08;;;;;;;8.90;8.20;;;;;;;;;;4965783;28;24445;-52
2021/08/01 08:56:35;;;;;;;8.57;7.80;;;;;;;;;;4971914;28;24414;-51
2021/08/01 08:59:00;;;;;;;7.30;6.80;;;;;;;;;;4954202;28;25073;-52
2021/08/01 09:01:25;;;;;;;9.00;8.30;;;;;;;;;;4980864;28;24416;-51
2021/08/01 09:03:50;;;;;;;7.00;6.50;;;;;;;;;;4964121;28;24398;-52
2021/08/01 09:06:16;;;;;;;8.80;8.00;;;;;;;;;;4968345;28;24986;-52
2021/08/01 09:08:41;;;;;;;7.07;6.57;;;;;;;;;;4973285;28;24977;-52
2021/08/01 09:11:06;;;;;;;7.73;7.03;;;;;;;;;;4966651;28;24441;-52
2021/08/01 09:13:41;;;;;;;8.70;8.10;;;;;;;;;;4969452;28;24451;-52
2021/08/01 09:16:06;;;;;;;8.10;7.40;;;;;;;;;;4980674;28;24421;-52
2021/08/01 09:18:34;;;;;;;8.77;8.18;;;;;;;;;;4972891;28;24499;-52
2021/08/01 09:20:59;;;;;;;9.23;8.43;;;;;;;;;;4984092;28;24489;-52
2021/08/01 09:23:25;;;;;;;9.75;8.95;;;;;;;;;;4976807;28;24861;-53
2021/08/01 09:25:57;;;;;;;8.53;7.93;;;;;;;;;;4976772;28;24560;-52
2021/08/01 09:28:25;;;;;;;8.93;8.23;;;;;;;;;;4969312;28;24497;-52
2021/08/01 09:30:51;;;;;;;8.30;7.70;;;;;;;;;;4965586;28;24505;-53
2021/08/01 09:33:45;;;;;;;8.60;7.90;;;;;;;;;;4967624;28;24513;-53
2021/08/01 09:36:18;;;;;;;8.88;7.82;;;;;;;;;;4958295;28;24425;-53
2021/08/01 09:38:44;;;;;;;8.85;8.25;;;;;;;;;;4971090;28;24425;-52
2021/08/01 09:41:09;;;;;;;9.32;8.63;;;;;;;;;;4971325;28;24402;-53
2021/08/01 09:43:42;;;;;;;9.50;8.80;;;;;;;;;;4971067;28;24992;-53
2021/08/01 09:46:07;;;;;;;8.60;8.00;;;;;;;;;;4971229;28;24398;-53
2021/08/01 09:48:32;;;;;;;8.50;7.88;;;;;;;;;;4971089;28;24412;-53
2021/08/01 09:50:59;;;;;;;9.27;8.50;;;;;;;;;;4970761;28;24401;-53
2021/08/01 09:53:24;;;;;;;9.38;8.73;;;;;;;;;;4970828;28;24432;-54
2021/08/01 09:56:08;;;;;;;8.07;7.47;;;;;;;;;;4970921;28;24496;-54
2021/08/01 09:58:34;;;;;;;8.45;7.75;;;;;;;;;;4970883;28;24912;-54
2021/08/01 10:01:00;;;;;;;7.87;7.27;;;;;;;;;;4970404;28;24480;-54
2021/08/01 10:03:45;;;;;;;7.50;7.00;;;;;;;;;;4970238;28;25136;-58
2021/08/01 10:06:15;;;;;;;8.10;7.40;;;;;;;;;;4970621;28;24834;-54
2021/08/01 10:08:47;;;;;;;8.10;7.50;;;;;;;;;;4970776;28;24408;-54
2021/08/01 10:11:12;;;;;;;7.95;7.40;;;;;;;;;;4970767;28;24393;-55
2021/08/01 10:13:37;;;;;;;7.30;6.80;;;;;;;;;;4970491;28;25166;-54
2021/08/01 10:16:03;;;;;;;9.20;8.48;;;;;;;;;;4970816;28;24448;-54
2021/08/01 10:18:28;;;;;;;7.60;7.10;;;;;;;;;;4970634;28;24481;-54
2021/08/01 10:20:53;;;;;;;7.10;6.60;;;;;;;;;;4970456;28;24970;-54
2021/08/01 10:23:18;;;;;;;7.57;6.97;;;;;;;;;;4970577;28;24501;-54
2021/08/01 10:25:44;;;;;;;7.30;6.80;;;;;;;;;;4978976;28;24409;-54
2021/08/01 10:28:10;;;;;;;7.00;6.50;;;;;;;;;;4989924;28;24400;-54
2021/08/01 10:30:38;;;;;;;8.82;8.02;;;;;;;;;;4989358;28;24447;-54
2021/08/01 10:33:05;;;;;;;7.90;7.30;;;;;;;;;;4989827;28;24981;-54
2021/08/01 10:35:33;;;;;;;7.65;7.05;;;;;;;;;;4976655;28;24973;-54
2021/08/01 10:38:02;;;;;;;7.60;7.00;;;;;;;;;;4973143;28;24414;-53
2021/08/01 10:40:29;;;;;;;7.28;6.78;;;;;;;;;;4978795;28;24413;-53
2021/08/01 10:42:57;;;;;;;8.27;7.70;;;;;;;;;;4980352;28;25009;-53
2021/08/01 10:45:22;;;;;;;7.90;7.20;;;;;;;;;;4968115;28;24437;-53
2021/08/01 10:47:51;;;;;;;7.87;7.27;;;;;;;;;;4971769;28;24408;-52
2021/08/01 10:50:18;;;;;;;7.00;6.50;;;;;;;;;;4980362;28;24808;-53
2021/08/01 10:52:43;;;;;;;6.40;6.00;;;;;;;;;;4967170;28;24424;-52
2021/08/01 10:55:18;;;;;;;8.67;8.07;;;;;;;;;;4967275;28;24765;-53
2021/08/01 10:58:04;;;;;;;6.43;5.93;;;;;;;;;;4967527;28;24385;-53
2021/08/01 11:00:49;;;;;;;9.10;8.30;;;;;;;;;;4974315;28;24468;-53
2021/08/01 11:03:14;;;;;;;7.97;7.38;;;;;;;;;;4966456;28;24417;-52
2021/08/01 11:05:41;;;;;;;7.03;6.53;;;;;;;;;;4970545;28;24479;-52
2021/08/01 11:08:07;;;;;;;8.13;7.53;;;;;;;;;;4971514;28;24769;-53
2021/08/01 11:10:33;;;;;;;6.90;6.43;;;;;;;;;;4974678;28;24428;-53
2021/08/01 11:12:59;;;;;;;7.40;6.80;;;;;;;;;;4967066;28;24438;-53
2021/08/01 11:15:42;;;;;;;6.53;6.07;;;;;;;;;;4967906;28;25002;-54
2021/08/01 11:18:07;;;;;;;8.27;7.57;;;;;;;;;;4971575;28;24486;-53
2021/08/01 11:20:32;;;;;;;7.67;7.07;;;;;;;;;;4966899;28;24772;-54
2021/08/01 11:23:00;;;;;;;5.75;5.35;;;;;;;;;;4971186;28;24417;-53
2021/08/01 11:25:26;;;;;;;7.63;7.05;;;;;;;;;;4982966;28;24425;-54
2021/08/01 11:28:09;;;;;;;7.05;6.55;;;;;;;;;;4984895;28;24423;-53
2021/08/01 11:30:53;;;;;;;8.03;7.43;;;;;;;;;;4985275;28;24429;-54
2021/08/01 11:33:38;;;;;;;6.95;6.45;;;;;;;;;;4973703;28;24455;-54
2021/08/01 11:36:06;;;;;;;6.82;6.43;;;;;;;;;;4968538;28;25174;-53
2021/08/01 11:38:32;;;;;;;8.33;7.73;;;;;;;;;;4983068;28;24421;-53
2021/08/01 11:40:57;;;;;;;8.20;7.60;;;;;;;;;;4966587;28;24421;-53
2021/08/01 11:43:22;;;;;;;6.63;6.13;;;;;;;;;;4971712;28;24753;-53
2021/08/01 11:46:04;;;;;;;6.57;6.18;;;;;;;;;;4984047;28;25051;-53
2021/08/01 11:48:29;;;;;;;8.75;8.05;;;;;;;;;;4984768;28;24413;-53
2021/08/01 11:50:57;;;;;;;7.63;7.13;;;;;;;;;;4974962;28;24580;-53
2021/08/01 11:53:23;;;;;;;8.13;7.45;;;;;;;;;;4966172;28;24537;-53
2021/08/01 11:55:49;;;;;;;8.20;7.60;;;;;;;;;;4974156;28;24506;-53
2021/08/01 11:58:14;;;;;;;7.20;6.70;;;;;;;;;;4979048;28;25314;-54
2021/08/01 12:00:40;;;;;;;8.60;7.90;;;;;;;;;;4985248;28;24400;-53
2021/08/01 12:03:06;;;;;;;7.93;7.43;;;;;;;;;;4966135;28;24414;-53
2021/08/01 12:05:44;;;;;;;8.93;8.23;;;;;;;;;;4967336;28;24836;-53
2021/08/01 12:08:27;;;;;;;7.45;6.95;;;;;;;;;;4965787;28;24456;-53
2021/08/01 12:11:04;;;;;;;8.00;7.40;;;;;;;;;;4965621;28;24994;-54
2021/08/01 12:13:29;;;;;;;7.90;7.30;;;;;;;;;;4980682;28;24437;-53
2021/08/01 12:15:54;;;;;;;10.05;9.35;;;;;;;;;;4984908;28;25225;-53
2021/08/01 12:18:28;;;;;;;10.32;9.43;;;;;;;;;;4984558;28;24413;-54
2021/08/01 12:20:54;;;;;;;10.05;9.25;;;;;;;;;;4987983;28;24459;-53
2021/08/01 12:23:34;;;;;;;10.50;9.70;;;;;;;;;;4987711;28;24500;-54
2021/08/01 12:26:00;;;;;;;9.20;8.60;;;;;;;;;;4987757;28;24463;-53
2021/08/01 12:28:37;;;;;;;9.65;8.85;;;;;;;;;;4987905;28;24414;-53
2021/08/01 12:31:02;;;;;;;8.82;8.10;;;;;;;;;;4987480;28;24413;-53
2021/08/01 12:33:27;;;;;;;8.93;8.32;;;;;;;;;;4987508;28;24429;-54
2021/08/01 12:35:53;;;;;;;9.80;9.10;;;;;;;;;;4987811;28;24405;-53
2021/08/01 12:38:23;;;;;;;7.50;7.00;;;;;;;;;;4987993;28;24385;-54
2021/08/01 12:40:48;;;;;;;8.50;7.90;;;;;;;;;;4987975;28;24400;-53
2021/08/01 12:43:15;;;;;;;8.10;7.50;;;;;;;;;;4987632;28;24432;-54
2021/08/01 12:45:41;;;;;;;8.05;7.45;;;;;;;;;;4987529;28;24448;-53
2021/08/01 12:48:13;;;;;;;9.43;8.70;;;;;;;;;;4985830;28;25599;-54
2021/08/01 12:50:43;;;;;;;8.45;7.88;;;;;;;;;;4976789;28;24432;-53
2021/08/01 12:53:09;;;;;;;8.00;7.40;;;;;;;;;;4987891;28;24457;-53
2021/08/01 12:55:34;;;;;;;7.20;6.70;;;;;;;;;;4975055;28;24437;-53
2021/08/01 12:58:09;;;;;;;6.93;6.43;;;;;;;;;;4968627;28;24932;-53
2021/08/01 13:00:37;;;;;;;5.82;5.43;;;;;;;;;;4968535;28;24445;-53
2021/08/01 13:03:03;;;;;;;7.63;7.13;;;;;;;;;;4966321;28;24435;-53
2021/08/01 13:05:35;;;;;;;6.82;6.32;;;;;;;;;;4968637;28;24967;-53
2021/08/01 13:08:01;;;;;;;7.30;6.70;;;;;;;;;;4974808;28;24488;-55
2021/08/01 13:10:27;;;;;;;8.50;7.90;;;;;;;;;;4990164;28;24407;-54
2021/08/01 13:13:08;;;;;;;6.15;5.75;;;;;;;;;;4991303;28;24427;-54
2021/08/01 13:15:35;;;;;;;6.63;6.13;;;;;;;;;;4979321;28;24429;-54
2021/08/01 13:18:01;;;;;;;8.50;7.90;;;;;;;;;;4987139;28;25026;-54
2021/08/01 13:20:35;;;;;;;7.83;7.33;;;;;;;;;;4991471;28;24516;-54
2021/08/01 13:23:02;;;;;;;7.13;6.55;;;;;;;;;;4990954;28;25024;-53
2021/08/01 13:25:34;;;;;;;6.63;6.13;;;;;;;;;;4991798;28;24440;-54
2021/08/01 13:28:00;;;;;;;6.00;5.60;;;;;;;;;;4990823;28;24479;-53
2021/08/01 13:30:25;;;;;;;5.60;5.20;;;;;;;;;;4991273;28;24966;-54
2021/08/01 13:32:50;;;;;;;5.80;5.40;;;;;;;;;;4990389;28;24532;-51
2021/08/01 13:35:16;;;;;;;6.85;6.40;;;;;;;;;;4991296;28;24792;-52
2021/08/01 13:37:41;;;;;;;5.73;5.33;;;;;;;;;;4990844;28;24467;-54
2021/08/01 13:40:07;;;;;;;6.05;5.63;;;;;;;;;;4991562;28;24472;-53
2021/08/01 13:42:35;;;;;;;6.40;5.90;;;;;;;;;;4990734;28;24409;-53
2021/08/01 13:45:01;;;;;;;5.03;4.60;;;;;;;;;;4991089;28;24460;-53
2021/08/01 13:47:28;;;;;;;4.90;4.60;;;;;;;;;;4990372;28;24393;-52
2021/08/01 13:49:58;;;;;;;4.45;4.15;;;;;;;;;;4971570;28;24400;-53
2021/08/01 13:52:24;;;;;;;4.60;4.30;;;;;;;;;;4971510;28;24990;-53
2021/08/01 13:54:54;;;;;;;5.28;4.88;;;;;;;;;;4979185;28;24424;-53
2021/08/01 13:57:23;;;;;;;5.20;4.90;;;;;;;;;;4990976;28;24801;-53
2021/08/01 13:59:48;;;;;;;4.20;3.90;;;;;;;;;;4990761;28;24452;-53
2021/08/01 14:02:13;;;;;;;4.30;4.00;;;;;;;;;;4990543;28;24963;-53
2021/08/01 14:04:38;;;;;;;4.50;4.20;;;;;;;;;;4990103;28;24476;-53
2021/08/01 14:07:04;;;;;;;4.10;3.80;;;;;;;;;;4990540;28;24512;-52
2021/08/01 14:09:29;;;;;;;4.10;3.90;;;;;;;;;;4990426;28;24429;-53
2021/08/01 14:11:54;;;;;;;4.45;4.13;;;;;;;;;;4989984;28;24432;-53
2021/08/01 14:14:20;;;;;;;4.70;4.40;;;;;;;;;;4989777;28;25383;-53
2021/08/01 14:16:46;;;;;;;4.78;4.47;;;;;;;;;;4986058;28;24408;-53
2021/08/01 14:19:11;;;;;;;4.20;3.90;;;;;;;;;;4990013;28;24409;-53
2021/08/01 14:21:36;;;;;;;6.80;6.30;;;;;;;;;;4989911;28;24857;-53
2021/08/01 14:24:01;;;;;;;6.90;6.40;;;;;;;;;;4990361;28;24504;-53
2021/08/01 14:26:30;;;;;;;6.23;5.73;;;;;;;;;;4990259;28;24997;-52
2021/08/01 14:28:55;;;;;;;5.78;5.38;;;;;;;;;;4989691;28;24416;-53
2021/08/01 14:31:20;;;;;;;6.10;5.70;;;;;;;;;;4980436;28;24414;-53
2021/08/01 14:33:46;;;;;;;6.13;5.72;;;;;;;;;;4978991;28;24436;-53
2021/08/01 14:36:12;;;;;;;5.50;5.10;;;;;;;;;;4970151;28;24392;-54
2021/08/01 14:38:38;;;;;;;6.90;6.40;;;;;;;;;;4969110;28;24476;-52
2021/08/01 14:41:03;;;;;;;5.00;4.70;;;;;;;;;;4970067;28;24409;-52